Time;durP1;ratioP1;P1;durP2;ratioP2;P2;SDS_P1;SDS_P2;PMS_P1;PMS_P2;Temp;Humidity;BMP_temperature;BMP_pressure;BME280_temperature;BME280_humidity;BME280_pressure;Samples;Min_cycle;Max_cycle;Signal;HPM_P1;HPM_P2
2023/02/03 00:00:27;;;;;;;;;;;;;;;4.24;100.00;98021.28;5037943;28;19924;-70
2023/02/03 00:02:53;;;;;;;;;;;;;;;4.24;100.00;98023.97;5056738;28;19921;-71
2023/02/03 00:05:18;;;;;;;;;;;;;;;4.29;100.00;98021.19;5038939;28;19925;-70
2023/02/03 00:07:43;;;;;;;;;;;;;;;4.22;100.00;98007.19;5041466;28;20484;-71
2023/02/03 00:10:09;;;;;;;;;;;;;;;4.20;99.79;98014.81;5036303;28;19964;-71
2023/02/03 00:12:34;;;;;;;;;;;;;;;4.24;99.81;98017.75;5059116;28;19928;-70
2023/02/03 00:15:00;;;;;;;;;;;;;;;4.24;99.59;98020.47;5039131;28;20469;-70
2023/02/03 00:17:25;;;;;;;;;;;;;;;4.24;99.34;98005.00;5052084;28;20238;-70
2023/02/03 00:19:50;;;;;;;;;;;;;;;4.17;99.56;98007.28;5041175;28;20387;-71
2023/02/03 00:22:16;;;;;;;;;;;;;;;4.12;99.93;98015.47;5036135;28;19924;-70
2023/02/03 00:24:41;;;;;;;;;;;;;;;4.10;100.00;98013.03;5041145;28;20275;-70
2023/02/03 00:27:06;;;;;;;;;;;;;;;4.21;100.00;98022.69;5036158;28;20373;-69
2023/02/03 00:29:31;;;;;;;;;;;;;;;4.25;99.67;98022.06;5045746;28;19917;-70
2023/02/03 00:31:57;;;;;;;;;;;;;;;4.16;99.79;98030.03;5061213;28;19924;-70
2023/02/03 00:34:26;;;;;;;;;;;;;;;4.10;100.00;98039.34;5041359;28;19921;-70
2023/02/03 00:36:51;;;;;;;;;;;;;;;4.10;100.00;98044.78;5050278;28;19923;-71
2023/02/03 00:39:17;;;;;;;;;;;;;;;4.05;100.00;98056.50;5058207;28;19917;-69
2023/02/03 00:41:42;;;;;;;;;;;;;;;4.05;100.00;98058.41;5049699;28;19945;-69
2023/02/03 00:44:07;;;;;;;;;;;;;;;4.20;100.00;98059.00;5039991;28;19924;-70
2023/02/03 00:46:35;;;;;;;;;;;;;;;4.20;99.90;98056.31;5045210;28;19982;-70
2023/02/03 00:49:00;;;;;;;;;;;;;;;4.20;98.93;98056.31;5044206;28;19944;-70
2023/02/03 00:51:25;;;;;;;;;;;;;;;4.11;99.66;98051.84;5021685;28;19920;-70
2023/02/03 00:53:51;;;;;;;;;;;;;;;4.03;100.00;98050.56;5044853;28;19948;-70
2023/02/03 00:56:16;;;;;;;;;;;;;;;4.04;100.00;98051.38;5040576;28;19921;-70
2023/02/03 00:58:41;;;;;;;;;;;;;;;4.01;100.00;98058.19;5061628;28;20355;-70
2023/02/03 01:01:07;;;;;;;;;;;;;;;4.00;100.00;98051.16;5055428;28;19921;-70
2023/02/03 01:03:32;;;;;;;;;;;;;;;4.06;99.93;98043.75;5045024;28;20007;-70
2023/02/03 01:06:11;;;;;;;;;;;;;;;3.98;100.00;98042.47;5027456;28;20286;-70
2023/02/03 01:08:37;;;;;;;;;;;;;;;4.06;99.84;98049.97;5057196;28;19917;-70
2023/02/03 01:11:09;;;;;;;;;;;;;;;4.02;99.83;98043.53;5060280;28;20392;-70
2023/02/03 01:13:35;;;;;;;;;;;;;;;3.98;99.90;98032.47;5043990;28;20015;-69
2023/02/03 01:16:00;;;;;;;;;;;;;;;3.98;100.00;98040.59;5026662;28;20439;-70
2023/02/03 01:18:25;;;;;;;;;;;;;;;4.01;100.00;98040.00;5041115;28;20250;-70
2023/02/03 01:20:51;;;;;;;;;;;;;;;4.05;99.97;98037.50;5060429;28;19999;-70
2023/02/03 01:23:16;;;;;;;;;;;;;;;4.02;99.89;98033.50;5041984;28;19917;-69
2023/02/03 01:25:41;;;;;;;;;;;;;;;3.95;100.00;98043.88;5043851;28;20006;-69
2023/02/03 01:28:06;;;;;;;;;;;;;;;3.93;100.00;98037.16;5054625;28;19921;-70
2023/02/03 01:30:33;;;;;;;;;;;;;;;4.01;100.00;98031.06;5044740;28;19916;-69
2023/02/03 01:32:58;;;;;;;;;;;;;;;3.94;100.00;98033.31;5045310;28;20397;-70
2023/02/03 01:35:23;;;;;;;;;;;;;;;3.97;100.00;98016.50;5040451;28;20050;-70
2023/02/03 01:37:48;;;;;;;;;;;;;;;3.96;100.00;98023.00;5027424;28;19967;-70
2023/02/03 01:40:14;;;;;;;;;;;;;;;3.96;100.00;98023.00;5041005;28;19921;-71
2023/02/03 01:42:39;;;;;;;;;;;;;;;3.93;100.00;98037.94;5044226;28;20028;-70
2023/02/03 01:45:05;;;;;;;;;;;;;;;3.92;100.00;98038.22;5039232;28;19916;-71
2023/02/03 01:47:52;;;;;;;;;;;;;;;3.90;100.00;98043.13;5026005;28;19916;-71
2023/02/03 01:50:20;;;;;;;;;;;;;;;3.84;100.00;98050.53;5021589;28;19917;-71
2023/02/03 01:52:56;;;;;;;;;;;;;;;3.91;100.00;98067.25;5041178;28;19927;-70
2023/02/03 01:55:26;;;;;;;;;;;;;;;3.83;100.00;98060.56;5043872;28;20285;-69
2023/02/03 01:57:54;;;;;;;;;;;;;;;3.91;100.00;98072.66;5064504;28;19985;-69
2023/02/03 02:00:20;;;;;;;;;;;;;;;3.86;100.00;98063.81;5056218;28;19917;-69
2023/02/03 02:02:46;;;;;;;;;;;;;;;3.88;100.00;98069.72;5057640;28;19921;-69
2023/02/03 02:05:19;;;;;;;;;;;;;;;3.90;100.00;98073.75;5043017;28;20483;-69
2023/02/03 02:07:45;;;;;;;;;;;;;;;3.92;100.00;98071.56;5042351;28;20023;-69
2023/02/03 02:10:10;;;;;;;;;;;;;;;3.87;100.00;98063.50;5038800;28;19917;-70
2023/02/03 02:12:36;;;;;;;;;;;;;;;3.85;100.00;98064.88;5042745;28;19921;-69
2023/02/03 02:15:02;;;;;;;;;;;;;;;3.84;100.00;98050.53;5043067;28;19939;-70
2023/02/03 02:17:46;;;;;;;;;;;;;;;3.85;100.00;98062.97;5041490;28;19920;-69
2023/02/03 02:20:29;;;;;;;;;;;;;;;3.92;99.91;98058.00;5038586;28;19917;-70
2023/02/03 02:23:22;;;;;;;;;;;;;;;3.88;99.81;98065.13;5044398;28;19924;-69
2023/02/03 02:25:57;;;;;;;;;;;;;;;3.96;99.95;98039.25;5043026;28;20404;-69
2023/02/03 02:28:25;;;;;;;;;;;;;;;3.96;100.00;98018.41;5037586;28;20608;-69
2023/02/03 02:31:02;;;;;;;;;;;;;;;3.96;99.63;98004.03;5043152;28;19916;-69
2023/02/03 02:33:27;;;;;;;;;;;;;;;3.97;99.47;98013.78;5037993;28;19997;-69
2023/02/03 02:36:00;;;;;;;;;;;;;;;4.03;98.69;98023.44;5058711;28;20402;-69
2023/02/03 02:38:28;;;;;;;;;;;;;;;3.95;99.46;98018.69;5037688;28;19956;-70
2023/02/03 02:40:58;;;;;;;;;;;;;;;3.93;99.34;98029.03;5043093;28;20002;-70
2023/02/03 02:43:39;;;;;;;;;;;;;;;3.88;100.00;98048.84;5037044;28;20292;-70
2023/02/03 02:46:09;;;;;;;;;;;;;;;3.85;100.00;98035.88;5037334;28;19921;-71
2023/02/03 02:48:36;;;;;;;;;;;;;;;3.76;100.00;98035.72;5042684;28;20015;-70
2023/02/03 02:51:03;;;;;;;;;;;;;;;3.78;99.53;98036.25;5039575;28;19917;-71
2023/02/03 02:53:32;;;;;;;;;;;;;;;3.78;99.38;98027.28;5040801;28;19928;-70
2023/02/03 02:55:59;;;;;;;;;;;;;;;3.78;99.22;98038.94;5028668;28;19971;-70
2023/02/03 02:58:26;;;;;;;;;;;;;;;3.87;98.87;98036.41;5037915;28;19955;-70
2023/02/03 03:00:52;;;;;;;;;;;;;;;3.89;98.32;98028.78;5042039;28;19940;-70
2023/02/03 03:03:17;;;;;;;;;;;;;;;3.93;97.96;98029.81;5037713;28;20386;-70
2023/02/03 03:05:45;;;;;;;;;;;;;;;3.87;97.70;98017.44;5059047;28;19924;-69
2023/02/03 03:08:12;;;;;;;;;;;;;;;3.86;97.47;98023.16;5038128;28;19920;-70
2023/02/03 03:10:39;;;;;;;;;;;;;;;3.80;97.42;98027.81;5024535;28;19917;-69
2023/02/03 03:13:06;;;;;;;;;;;;;;;3.78;97.38;98030.00;5038043;28;19921;-70
2023/02/03 03:15:32;;;;;;;;;;;;;;;3.80;97.50;98027.81;5041274;28;19943;-69
2023/02/03 03:18:07;;;;;;;;;;;;;;;3.78;97.54;98030.81;5043580;28;19924;-70
2023/02/03 03:20:34;;;;;;;;;;;;;;;3.79;97.09;98020.78;5040366;28;20002;-70
2023/02/03 03:23:02;;;;;;;;;;;;;;;3.86;97.50;98023.16;5057671;28;19952;-70
2023/02/03 03:25:30;;;;;;;;;;;;;;;3.81;97.21;98013.16;5021059;28;20282;-69
2023/02/03 03:27:58;;;;;;;;;;;;;;;3.87;97.16;98008.47;5042223;28;19970;-70
2023/02/03 03:30:34;;;;;;;;;;;;;;;3.83;96.96;98019.91;5035063;28;20505;-70
2023/02/03 03:33:00;;;;;;;;;;;;;;;3.85;97.06;98018.81;5043201;28;20007;-70
2023/02/03 03:35:29;;;;;;;;;;;;;;;3.90;96.78;98024.97;5045025;28;19967;-69
2023/02/03 03:37:58;;;;;;;;;;;;;;;3.90;96.00;98019.53;5057885;28;19917;-69
2023/02/03 03:40:30;;;;;;;;;;;;;;;3.85;96.06;98024.22;5037783;28;20347;-69
2023/02/03 03:43:22;;;;;;;;;;;;;;;3.86;96.21;98021.22;5041330;28;20266;-69
2023/02/03 03:45:59;;;;;;;;;;;;;;;3.93;95.85;98024.41;5039523;28;19974;-71
2023/02/03 03:48:28;;;;;;;;;;;;;;;3.91;95.46;98006.81;5037659;28;20003;-70
2023/02/03 03:51:00;;;;;;;;;;;;;;;3.90;94.77;97997.06;5043676;28;19923;-70
2023/02/03 03:53:27;;;;;;;;;;;;;;;3.91;94.79;97998.69;5021036;28;19927;-70
2023/02/03 03:55:53;;;;;;;;;;;;;;;3.88;95.06;97991.13;5041335;28;19924;-70
2023/02/03 03:58:24;;;;;;;;;;;;;;;3.84;94.64;97980.06;5036635;28;19967;-71
2023/02/03 04:00:53;;;;;;;;;;;;;;;3.83;94.40;97984.69;5032488;28;20051;-71
2023/02/03 04:03:22;;;;;;;;;;;;;;;3.82;94.52;97976.84;5059820;28;19928;-71
2023/02/03 04:05:47;;;;;;;;;;;;;;;3.89;94.54;97977.28;5026929;28;19917;-71
2023/02/03 04:08:12;;;;;;;;;;;;;;;3.98;93.41;97988.25;5037408;28;19917;-71
2023/02/03 04:10:39;;;;;;;;;;;;;;;3.94;93.49;97995.38;5023484;28;19924;-71
2023/02/03 04:13:06;;;;;;;;;;;;;;;3.93;93.35;97988.34;5018630;28;19920;-70
2023/02/03 04:15:33;;;;;;;;;;;;;;;3.94;92.86;97979.94;5054910;28;19923;-70
2023/02/03 04:18:00;;;;;;;;;;;;;;;3.96;92.34;97985.03;5053908;28;19925;-70
2023/02/03 04:20:30;;;;;;;;;;;;;;;3.96;92.42;97963.34;5043245;28;19936;-71
2023/02/03 04:22:56;;;;;;;;;;;;;;;3.96;92.40;97956.06;5044497;28;20003;-71
2023/02/03 04:25:22;;;;;;;;;;;;;;;3.97;92.13;97962.28;5050866;28;20164;-71
2023/02/03 04:27:48;;;;;;;;;;;;;;;4.02;91.73;97968.41;5054132;28;19925;-71
2023/02/03 04:30:13;;;;;;;;;;;;;;;4.03;91.34;97969.22;5052578;28;19921;-71
2023/02/03 04:32:39;;;;;;;;;;;;;;;4.06;90.78;97963.22;5044812;28;20390;-71
2023/02/03 04:35:06;;;;;;;;;;;;;;;3.98;91.24;97972.00;5041459;28;19928;-69
2023/02/03 04:37:32;;;;;;;;;;;;;;;3.99;91.58;97987.19;5051141;28;19917;-70
2023/02/03 04:39:57;;;;;;;;;;;;;;;3.97;91.34;98000.22;5042097;28;19916;-70
2023/02/03 04:42:23;;;;;;;;;;;;;;;3.96;90.87;97988.59;5036455;28;20263;-69
2023/02/03 04:44:49;;;;;;;;;;;;;;;3.99;91.05;98012.38;5022603;28;19921;-70
2023/02/03 04:47:15;;;;;;;;;;;;;;;3.98;90.50;98028.94;5035839;28;20193;-71
2023/02/03 04:49:40;;;;;;;;;;;;;;;3.98;90.81;98047.91;5041632;28;20015;-70
2023/02/03 04:52:05;;;;;;;;;;;;;;;3.95;91.25;98046.59;5019694;28;19917;-70
2023/02/03 04:54:31;;;;;;;;;;;;;;;4.00;91.00;98032.97;5023185;28;19970;-70
2023/02/03 04:56:56;;;;;;;;;;;;;;;3.95;90.93;98003.22;5041080;28;20006;-70
2023/02/03 04:59:21;;;;;;;;;;;;;;;3.92;91.24;98011.13;5035900;28;20156;-70
2023/02/03 05:01:47;;;;;;;;;;;;;;;3.92;91.23;98035.53;5023475;28;19925;-69
2023/02/03 05:04:12;;;;;;;;;;;;;;;3.86;91.54;98039.41;5036664;28;19916;-70
2023/02/03 05:06:37;;;;;;;;;;;;;;;3.87;91.57;98035.59;5039132;28;20543;-69
2023/02/03 05:09:03;;;;;;;;;;;;;;;3.94;91.29;98041.47;5039299;28;20428;-66
2023/02/03 05:11:28;;;;;;;;;;;;;;;3.95;91.48;98040.38;5022075;28;20617;-70
2023/02/03 05:13:54;;;;;;;;;;;;;;;3.86;91.45;98036.69;5026442;28;19921;-68
2023/02/03 05:16:19;;;;;;;;;;;;;;;3.92;91.75;98036.31;5038009;28;20370;-70
2023/02/03 05:18:45;;;;;;;;;;;;;;;3.93;91.11;98034.44;5044630;28;20014;-69
2023/02/03 05:21:10;;;;;;;;;;;;;;;3.96;90.43;98036.53;5041581;28;20060;-69
2023/02/03 05:23:35;;;;;;;;;;;;;;;4.00;90.09;98043.81;5056084;28;19916;-69
2023/02/03 05:26:00;;;;;;;;;;;;;;;3.95;90.96;98062.06;5069349;28;19921;-69
2023/02/03 05:28:26;;;;;;;;;;;;;;;3.95;90.75;98060.16;5047381;28;19960;-69
2023/02/03 05:30:51;;;;;;;;;;;;;;;3.92;90.77;98055.28;5028135;28;19917;-69
2023/02/03 05:33:16;;;;;;;;;;;;;;;3.92;90.84;98051.78;5040134;28;19958;-68
2023/02/03 05:35:42;;;;;;;;;;;;;;;3.83;91.07;98059.75;5044229;28;19929;-69
2023/02/03 05:38:07;;;;;;;;;;;;;;;3.88;90.65;98080.56;5040395;28;20275;-69
2023/02/03 05:43:16;;;;;;;;;;;;;;;3.89;90.91;98053.19;5039436;28;19923;-69
2023/02/03 05:45:41;;;;;;;;;;;;;;;3.89;91.10;98041.50;5043489;28;19980;-69
2023/02/03 05:48:07;;;;;;;;;;;;;;;3.92;90.93;98043.66;5020899;28;19921;-69
2023/02/03 05:50:33;;;;;;;;;;;;;;;3.87;91.00;98022.84;5044030;28;20750;-68
2023/02/03 05:53:02;;;;;;;;;;;;;;;3.93;90.34;98051.50;5044681;28;19928;-69
2023/02/03 05:55:28;;;;;;;;;;;;;;;3.94;90.70;98045.00;5023576;28;19921;-69
2023/02/03 05:57:53;;;;;;;;;;;;;;;3.91;90.56;98034.72;5044764;28;19927;-69
2023/02/03 06:00:20;;;;;;;;;;;;;;;3.90;90.62;98026.88;5039359;28;19920;-70
2023/02/03 06:02:50;;;;;;;;;;;;;;;3.91;90.77;98028.50;5044609;28;20597;-69
2023/02/03 06:05:17;;;;;;;;;;;;;;;3.92;91.37;98041.75;5021221;28;21435;-69
2023/02/03 06:07:42;;;;;;;;;;;;;;;3.94;91.04;98045.00;5053687;28;19971;-69
2023/02/03 06:10:08;;;;;;;;;;;;;;;3.89;91.32;98046.94;5039303;28;19944;-69
2023/02/03 06:12:33;;;;;;;;;;;;;;;3.96;91.55;98055.53;5042859;28;19975;-69
2023/02/03 06:14:58;;;;;;;;;;;;;;;4.00;91.31;98065.50;5043275;28;19920;-69
2023/02/03 06:17:23;;;;;;;;;;;;;;;3.94;92.25;98057.72;5039240;28;20043;-69
2023/02/03 06:19:49;;;;;;;;;;;;;;;3.98;92.28;98047.91;5043574;28;19959;-69
2023/02/03 06:22:14;;;;;;;;;;;;;;;3.97;92.28;98028.13;5020569;28;20041;-69
2023/02/03 06:24:39;;;;;;;;;;;;;;;3.94;92.42;98036.03;5045457;28;19920;-69
2023/02/03 06:27:05;;;;;;;;;;;;;;;3.93;92.33;98042.56;5038955;28;19920;-69
2023/02/03 06:29:30;;;;;;;;;;;;;;;3.96;93.17;98037.38;5044829;28;19959;-70
2023/02/03 06:31:56;;;;;;;;;;;;;;;3.97;92.47;98059.84;5043863;28;19924;-71
2023/02/03 06:34:21;;;;;;;;;;;;;;;3.90;92.97;98071.03;5038776;28;23318;-70
2023/02/03 06:36:47;;;;;;;;;;;;;;;3.87;92.77;98074.34;5042294;28;20235;-69
2023/02/03 06:39:13;;;;;;;;;;;;;;;3.84;93.09;98077.63;5021695;28;19917;-69
2023/02/03 06:41:38;;;;;;;;;;;;;;;3.85;93.32;98083.84;5043536;28;19931;-69
2023/02/03 06:44:03;;;;;;;;;;;;;;;3.96;93.02;98099.72;5039809;28;20362;-68
2023/02/03 06:46:29;;;;;;;;;;;;;;;3.96;92.77;98104.31;5043663;28;20004;-69
2023/02/03 06:48:54;;;;;;;;;;;;;;;3.93;93.55;98083.22;5044143;28;19962;-69
2023/02/03 06:51:20;;;;;;;;;;;;;;;3.88;93.36;98075.94;5044335;28;19917;-69
2023/02/03 06:53:45;;;;;;;;;;;;;;;3.90;93.07;98071.03;5060322;28;19927;-69
2023/02/03 06:56:10;;;;;;;;;;;;;;;3.93;93.57;98073.19;5051049;28;19921;-69
2023/02/03 06:58:36;;;;;;;;;;;;;;;3.92;93.31;98084.31;5053657;28;19936;-69
2023/02/03 07:01:01;;;;;;;;;;;;;;;3.97;92.89;98081.53;5060558;28;19927;-70
2023/02/03 07:03:26;;;;;;;;;;;;;;;3.98;93.12;98083.16;5049798;28;19981;-69
2023/02/03 07:05:51;;;;;;;;;;;;;;;4.02;93.30;98087.72;5043049;28;19921;-69
2023/02/03 07:08:17;;;;;;;;;;;;;;;4.26;92.51;98075.22;5038180;28;19921;-68
2023/02/03 07:10:42;;;;;;;;;;;;;;;4.19;91.22;98079.09;5039221;28;19921;-68
2023/02/03 07:13:07;;;;;;;;;;;;;;;4.18;91.56;98060.41;5036758;28;20022;-68
2023/02/03 07:15:33;;;;;;;;;;;;;;;4.25;91.20;98055.44;5041930;28;19920;-69
2023/02/03 07:17:58;;;;;;;;;;;;;;;4.24;90.86;98048.38;5024772;28;19967;-70
2023/02/03 07:20:24;;;;;;;;;;;;;;;4.00;92.75;98038.41;5052630;28;19921;-70
2023/02/03 07:22:53;;;;;;;;;;;;;;;4.07;93.17;98054.31;5042231;28;19917;-71
2023/02/03 07:25:18;;;;;;;;;;;;;;;4.12;92.59;98045.28;5020763;28;19931;-70
2023/02/03 07:27:43;;;;;;;;;;;;;;;3.99;93.18;98049.53;5058343;28;19917;-70
2023/02/03 07:30:09;;;;;;;;;;;;;;;3.99;93.06;98053.03;5027596;28;19921;-70
2023/02/03 07:32:34;;;;;;;;;;;;;;;3.98;93.33;98056.88;5046576;28;19921;-70
2023/02/03 07:35:00;;;;;;;;;;;;;;;4.05;93.35;98061.91;5042828;28;19951;-70
2023/02/03 07:37:25;;;;;;;;;;;;;;;3.90;94.09;98060.19;5038758;28;19939;-70
2023/02/03 07:39:51;;;;;;;;;;;;;;;3.96;94.57;98069.91;5056048;28;19940;-70
2023/02/03 07:42:16;;;;;;;;;;;;;;;3.83;95.20;98065.16;5040020;28;20381;-70
2023/02/03 07:44:41;;;;;;;;;;;;;;;3.85;95.94;98079.22;5043776;28;19969;-70
2023/02/03 07:47:07;;;;;;;;;;;;;;;3.94;96.32;98088.38;5038805;28;19924;-69
2023/02/03 07:49:32;;;;;;;;;;;;;;;3.93;96.63;98084.03;5045660;28;20366;-70
2023/02/03 07:51:57;;;;;;;;;;;;;;;3.85;97.86;98076.53;5045375;28;19917;-70
2023/02/03 07:54:22;;;;;;;;;;;;;;;3.75;98.63;98079.38;5041189;28;20926;-70
2023/02/03 07:56:48;;;;;;;;;;;;;;;3.81;98.34;98079.00;5046659;28;19988;-70
2023/02/03 07:59:13;;;;;;;;;;;;;;;3.69;99.87;98066.97;5041462;28;20390;-69
2023/02/03 08:01:38;;;;;;;;;;;;;;;3.71;99.82;98070.19;5028319;28;19921;-71
2023/02/03 08:04:04;;;;;;;;;;;;;;;3.77;99.80;98066.34;5040564;28;19923;-69
2023/02/03 08:06:29;;;;;;;;;;;;;;;3.74;99.93;98069.63;5026234;28;20347;-70
2023/02/03 08:08:55;;;;;;;;;;;;;;;3.76;99.59;98062.00;5025491;28;19976;-70
2023/02/03 08:11:20;;;;;;;;;;;;;;;3.95;97.91;98060.16;5039663;28;19921;-70
2023/02/03 08:13:45;;;;;;;;;;;;;;;3.81;98.04;98057.31;5026122;28;20517;-70
2023/02/03 08:16:11;;;;;;;;;;;;;;;3.88;97.96;98058.88;5026354;28;19983;-68
2023/02/03 08:18:36;;;;;;;;;;;;;;;4.08;96.66;98036.94;5008362;28;20298;-69
2023/02/03 08:21:03;;;;;;;;;;;;;;;4.13;95.44;98049.63;5024569;28;19927;-68
2023/02/03 08:23:29;;;;;;;;;;;;;;;4.12;95.37;98050.72;5037978;28;19924;-70
2023/02/03 08:25:54;;;;;;;;;;;;;;;4.09;95.75;98045.88;5024937;28;19979;-70
2023/02/03 08:28:19;;;;;;;;;;;;;;;4.17;95.21;98048.75;5053163;28;20012;-70
2023/02/03 08:30:45;;;;;;;;;;;;;;;4.21;94.81;98049.78;5024547;28;20386;-70
2023/02/03 08:33:10;;;;;;;;;;;;;;;4.28;95.11;98062.97;5019058;28;19928;-70
2023/02/03 08:35:35;;;;;;;;;;;;;;;4.43;94.84;98069.28;5055394;28;20687;-70
2023/02/03 08:38:00;;;;;;;;;;;;;;;4.54;93.22;98073.50;5022281;28;19987;-69
2023/02/03 08:40:26;;;;;;;;;;;;;;;4.78;91.95;98078.81;5016231;28;20370;-69
2023/02/03 08:42:51;;;;;;;;;;;;;;;4.98;89.19;98067.63;5022621;28;20254;-69
2023/02/03 08:45:17;;;;;;;;;;;;;;;5.40;86.70;98064.22;5018425;28;19960;-70
2023/02/03 08:47:42;;;;;;;;;;;;;;;5.62;84.73;98067.09;5023697;28;20011;-70
2023/02/03 08:50:08;;;;;;;;;;;;;;;5.51;84.78;98071.91;5022424;28;20138;-70
2023/02/03 08:52:33;;;;;;;;;;;;;;;5.70;83.73;98079.16;5025989;28;20034;-69
2023/02/03 08:54:59;;;;;;;;;;;;;;;5.93;82.06;98080.09;5047605;28;19917;-70
2023/02/03 08:57:24;;;;;;;;;;;;;;;5.94;80.86;98051.78;5025688;28;19917;-70
2023/02/03 08:59:50;;;;;;;;;;;;;;;6.11;80.35;98048.47;5028477;28;19916;-70
2023/02/03 09:02:17;;;;;;;;;;;;;;;6.79;76.50;98057.59;5034666;28;20337;-70
2023/02/03 09:04:43;;;;;;;;;;;;;;;7.21;72.82;98060.91;5020260;28;20374;-70
2023/02/03 09:07:08;;;;;;;;;;;;;;;7.74;70.31;98063.91;5015156;28;19925;-70
2023/02/03 09:09:34;;;;;;;;;;;;;;;7.64;70.25;98073.19;5031590;28;20024;-69
2023/02/03 09:12:04;;;;;;;;;;;;;;;7.05;71.37;98062.41;5050804;28;19959;-70
2023/02/03 09:14:31;;;;;;;;;;;;;;;7.32;70.77;98068.84;5028942;28;19958;-70
2023/02/03 09:16:57;;;;;;;;;;;;;;;7.59;69.15;98063.22;5002665;28;19917;-70
2023/02/03 09:19:22;;;;;;;;;;;;;;;7.96;66.89;98082.94;5021664;28;20704;-70
2023/02/03 09:21:48;;;;;;;;;;;;;;;8.17;65.96;98079.63;5027294;28;19967;-70
2023/02/03 09:24:14;;;;;;;;;;;;;;;8.22;65.00;98087.69;5051112;28;19925;-70
2023/02/03 09:26:39;;;;;;;;;;;;;;;8.19;64.58;98104.69;5038933;28;19925;-70
2023/02/03 09:29:06;;;;;;;;;;;;;;;8.73;63.64;98110.78;5043343;28;19980;-71
2023/02/03 09:31:31;;;;;;;;;;;;;;;9.19;62.11;98106.59;5030932;28;19953;-70
2023/02/03 09:33:57;;;;;;;;;;;;;;;8.96;60.90;98103.22;5029182;28;20670;-70
2023/02/03 09:36:22;;;;;;;;;;;;;;;8.79;61.11;98095.03;5020211;28;20135;-69
2023/02/03 09:38:48;;;;;;;;;;;;;;;8.74;62.65;98100.66;5034851;23;19913;-67
2023/02/03 09:41:43;;;;;;;;;;;;;;;8.88;61.84;98100.50;5020228;28;19925;-67
2023/02/03 09:44:17;;;;;;;;;;;;;;;8.90;61.64;98088.13;5019446;28;19921;-68
2023/02/03 09:46:47;;;;;;;;;;;;;;;8.73;61.56;98085.38;5021930;28;19921;-68
2023/02/03 09:49:37;;;;;;;;;;;;;;;8.87;60.62;98090.69;5019025;28;19943;-68
2023/02/03 09:52:08;;;;;;;;;;;;;;;9.34;59.61;98096.28;5022533;28;19924;-68
2023/02/03 09:54:33;;;;;;;;;;;;;;;9.60;59.93;98098.16;5026909;28;20289;-68
2023/02/03 09:56:59;;;;;;;;;;;;;;;9.71;58.45;98102.97;5024118;28;19927;-67
2023/02/03 09:59:25;;;;;;;;;;;;;;;9.79;58.53;98098.59;5014266;28;20413;-67
2023/02/03 10:01:50;;;;;;;;;;;;;;;9.94;58.19;98100.78;5024085;28;19932;-68
2023/02/03 10:04:33;;;;;;;;;;;;;;;9.06;60.10;98110.31;5017774;28;19928;-68
2023/02/03 10:07:08;;;;;;;;;;;;;;;8.43;62.42;98090.66;5024689;28;19917;-69
2023/02/03 10:09:49;;;;;;;;;;;;;;;8.38;62.57;98093.50;5021783;28;20293;-68
2023/02/03 10:12:39;;;;;;;;;;;;;;;9.06;61.46;98087.66;5016746;28;19960;-69
2023/02/03 10:15:31;;;;;;;;;;;;;;;9.04;60.71;98084.41;5019884;28;19928;-67
2023/02/03 10:17:59;;;;;;;;;;;;;;;8.99;61.48;98085.41;5007856;28;20055;-68
2023/02/03 10:20:32;;;;;;;;;;;;;;;9.10;60.46;98078.47;5016575;28;19921;-69
2023/02/03 10:23:00;;;;;;;;;;;;;;;9.36;60.87;98072.97;5022702;28;20020;-69
2023/02/03 10:25:28;;;;;;;;;;;;;;;9.57;60.41;98069.53;5020226;28;20012;-68
2023/02/03 10:27:57;;;;;;;;;;;;;;;10.11;58.39;98077.22;5017502;28;19917;-68
2023/02/03 10:30:26;;;;;;;;;;;;;;;9.57;59.28;98069.53;5012432;28;19940;-68
2023/02/03 10:32:59;;;;;;;;;;;;;;;9.01;61.40;98066.75;5024374;28;19992;-68
2023/02/03 10:35:31;;;;;;;;;;;;;;;8.46;63.49;98059.16;5019236;28;20202;-68
2023/02/03 10:37:57;;;;;;;;;;;;;;;7.73;66.52;98073.22;5023744;28;19917;-67
2023/02/03 10:40:23;;;;;;;;;;;;;;;7.69;66.92;98042.22;5019016;28;20270;-68
2023/02/03 10:45:36;;;;;;;;;;;;;;;7.59;69.11;98041.41;5023624;28;20294;-68
2023/02/03 10:48:02;;;;;;;;;;;;;;;7.49;69.44;98043.59;5022866;28;20369;-67
2023/02/03 10:50:30;;;;;;;;;;;;;;;7.36;70.40;98046.09;5020001;28;19971;-67
2023/02/03 10:53:14;;;;;;;;;;;;;;;7.22;70.09;98042.63;5022891;28;20003;-67
2023/02/03 10:55:39;;;;;;;;;;;;;;;7.24;71.02;98027.59;5038078;28;19929;-67
2023/02/03 10:58:10;;;;;;;;;;;;;;;7.36;71.58;98031.66;5018152;28;19917;-68
2023/02/03 11:00:35;;;;;;;;;;;;;;;7.41;70.82;98017.91;5023786;28;19956;-67
2023/02/03 11:03:15;;;;;;;;;;;;;;;7.39;70.62;98011.97;5025392;28;19968;-68
2023/02/03 11:05:40;;;;;;;;;;;;;;;7.18;70.58;98003.50;5022217;28;19928;-67
2023/02/03 11:08:15;;;;;;;;;;;;;;;7.10;70.66;98013.25;5019471;28;19917;-68
2023/02/03 11:10:42;;;;;;;;;;;;;;;7.20;71.59;98014.91;5021147;28;20377;-68
2023/02/03 11:13:10;;;;;;;;;;;;;;;6.91;71.92;98009.94;5016901;28;19967;-67
2023/02/03 11:15:35;;;;;;;;;;;;;;;6.95;72.09;98027.25;5022751;28;19921;-67
2023/02/03 11:18:01;;;;;;;;;;;;;;;6.84;72.49;98018.53;5022084;28;20047;-67
2023/02/03 11:20:28;;;;;;;;;;;;;;;6.81;72.94;98021.88;5018446;28;19925;-67
2023/02/03 11:22:53;;;;;;;;;;;;;;;6.66;73.95;98031.19;5023702;28;19917;-67
2023/02/03 11:25:28;;;;;;;;;;;;;;;6.88;73.58;98027.69;5020277;28;19928;-68
2023/02/03 11:27:54;;;;;;;;;;;;;;;6.89;72.77;98024.66;5023746;28;20396;-68
2023/02/03 11:30:19;;;;;;;;;;;;;;;6.70;73.87;98024.84;5018183;28;20039;-67
2023/02/03 11:32:46;;;;;;;;;;;;;;;6.63;74.38;98012.78;5022777;28;20012;-68
2023/02/03 11:35:23;;;;;;;;;;;;;;;6.57;74.94;98006.66;5020604;28;20022;-68
2023/02/03 11:37:52;;;;;;;;;;;;;;;6.61;74.59;98002.19;5022657;28;19921;-68
2023/02/03 11:40:35;;;;;;;;;;;;;;;6.57;75.41;98023.00;5018770;28;19928;-68
2023/02/03 11:43:02;;;;;;;;;;;;;;;6.59;75.62;98006.31;5026741;28;19995;-68
2023/02/03 11:45:27;;;;;;;;;;;;;;;6.58;75.86;98002.81;5022067;28;19917;-69
2023/02/03 11:47:53;;;;;;;;;;;;;;;6.66;74.96;98004.81;5022087;28;19917;-67
2023/02/03 11:50:21;;;;;;;;;;;;;;;6.59;75.04;97990.81;5018308;28;19917;-67
2023/02/03 11:52:55;;;;;;;;;;;;;;;6.60;75.73;98013.38;5024361;28;20012;-68
2023/02/03 11:55:31;;;;;;;;;;;;;;;6.66;75.64;98009.41;5033586;28;19973;-68
2023/02/03 11:58:06;;;;;;;;;;;;;;;6.74;75.01;98010.63;5021516;28;19968;-68
2023/02/03 12:00:34;;;;;;;;;;;;;;;6.61;75.60;97995.91;5022551;28;19925;-68
2023/02/03 12:03:18;;;;;;;;;;;;;;;6.55;75.60;97995.25;5022612;28;19917;-68
2023/02/03 12:05:50;;;;;;;;;;;;;;;6.48;75.76;97960.31;5022128;28;20318;-68
2023/02/03 12:08:23;;;;;;;;;;;;;;;6.54;75.68;97979.25;5018162;28;19925;-68
2023/02/03 12:10:51;;;;;;;;;;;;;;;6.58;76.09;97980.22;5022838;28;19971;-67
2023/02/03 12:13:22;;;;;;;;;;;;;;;6.58;75.74;97977.50;5018850;28;20018;-68
2023/02/03 12:16:06;;;;;;;;;;;;;;;6.73;74.71;97965.44;5022707;28;19984;-68
2023/02/03 12:18:49;;;;;;;;;;;;;;;6.67;73.99;97942.97;5022261;28;19925;-68
2023/02/03 12:21:29;;;;;;;;;;;;;;;6.61;74.87;97922.41;5017890;28;19917;-68
2023/02/03 12:23:58;;;;;;;;;;;;;;;6.75;74.60;97925.88;5026503;28;19924;-68
2023/02/03 12:26:33;;;;;;;;;;;;;;;6.78;74.42;97930.72;5021304;28;19922;-68
2023/02/03 12:29:01;;;;;;;;;;;;;;;6.77;74.04;97920.13;5025339;28;20066;-67
2023/02/03 12:31:33;;;;;;;;;;;;;;;6.71;74.55;97935.78;5021807;28;19918;-66
2023/02/03 12:34:17;;;;;;;;;;;;;;;6.63;75.03;97937.34;5025317;28;19970;-67
2023/02/03 12:36:52;;;;;;;;;;;;;;;6.58;75.04;97928.50;5025205;28;19928;-67
2023/02/03 12:39:25;;;;;;;;;;;;;;;6.57;75.11;97932.34;5020491;28;19925;-67
2023/02/03 12:41:57;;;;;;;;;;;;;;;6.50;74.13;97922.69;5026613;28;19921;-68
2023/02/03 12:44:25;;;;;;;;;;;;;;;6.45;75.12;97924.75;5020716;28;20342;-68
2023/02/03 12:47:11;;;;;;;;;;;;;;;6.57;75.09;97927.72;5025933;28;20290;-68
2023/02/03 12:49:49;;;;;;;;;;;;;;;6.61;74.46;97897.91;5023950;28;20341;-68
2023/02/03 12:52:18;;;;;;;;;;;;;;;6.50;73.87;97924.63;5021000;28;19920;-68
2023/02/03 12:54:47;;;;;;;;;;;;;;;6.64;74.16;97922.59;5025303;28;19922;-67
2023/02/03 12:57:17;;;;;;;;;;;;;;;6.59;75.01;97919.22;5020001;28;20255;-67
2023/02/03 12:59:45;;;;;;;;;;;;;;;6.54;75.05;97917.44;5026010;28;19979;-67
2023/02/03 13:02:17;;;;;;;;;;;;;;;6.55;74.94;97910.06;5023280;28;19917;-67
2023/02/03 13:04:45;;;;;;;;;;;;;;;6.60;75.16;97915.38;5026075;28;20433;-66